sensor_id;sensor_type;location;lat;lon;timestamp;P1;durP1;ratioP1;P2;durP2;ratioP2
19671;SDS011;9983;51.114;13.788;2024-03-02T00:02:44;51.70;;;31.73;;
19671;SDS011;9983;51.114;13.788;2024-03-02T00:07:45;50.25;;;32.47;;
19671;SDS011;9983;51.114;13.788;2024-03-02T00:12:46;48.90;;;30.27;;
19671;SDS011;9983;51.114;13.788;2024-03-02T00:17:47;38.60;;;25.70;;
19671;SDS011;9983;51.114;13.788;2024-03-02T00:22:57;43.70;;;29.25;;
19671;SDS011;9983;51.114;13.788;2024-03-02T00:27:58;45.35;;;28.33;;
19671;SDS011;9983;51.114;13.788;2024-03-02T00:32:59;49.20;;;30.60;;
19671;SDS011;9983;51.114;13.788;2024-03-02T00:38:03;48.27;;;30.83;;
19671;SDS011;9983;51.114;13.788;2024-03-02T00:43:03;49.38;;;30.55;;
19671;SDS011;9983;51.114;13.788;2024-03-02T00:48:04;46.72;;;29.20;;
19671;SDS011;9983;51.114;13.788;2024-03-02T00:53:04;49.72;;;28.95;;
19671;SDS011;9983;51.114;13.788;2024-03-02T00:58:04;47.80;;;28.92;;
19671;SDS011;9983;51.114;13.788;2024-03-02T01:03:05;46.70;;;30.42;;
19671;SDS011;9983;51.114;13.788;2024-03-02T01:08:05;47.70;;;28.88;;
19671;SDS011;9983;51.114;13.788;2024-03-02T01:13:05;55.15;;;31.77;;
19671;SDS011;9983;51.114;13.788;2024-03-02T01:18:06;52.20;;;32.17;;
19671;SDS011;9983;51.114;13.788;2024-03-02T01:23:06;51.75;;;30.83;;
19671;SDS011;9983;51.114;13.788;2024-03-02T01:28:06;50.10;;;30.13;;
19671;SDS011;9983;51.114;13.788;2024-03-02T01:33:06;51.72;;;31.55;;
19671;SDS011;9983;51.114;13.788;2024-03-02T01:38:06;50.63;;;32.23;;
19671;SDS011;9983;51.114;13.788;2024-03-02T01:43:07;49.78;;;31.08;;
19671;SDS011;9983;51.114;13.788;2024-03-02T01:48:07;44.55;;;25.15;;
19671;SDS011;9983;51.114;13.788;2024-03-02T01:53:07;42.20;;;26.63;;
19671;SDS011;9983;51.114;13.788;2024-03-02T01:58:08;49.00;;;29.23;;
19671;SDS011;9983;51.114;13.788;2024-03-02T02:03:08;44.80;;;28.45;;
19671;SDS011;9983;51.114;13.788;2024-03-02T02:08:09;49.10;;;29.05;;
19671;SDS011;9983;51.114;13.788;2024-03-02T02:13:09;51.55;;;30.08;;
19671;SDS011;9983;51.114;13.788;2024-03-02T02:18:09;50.30;;;29.43;;
19671;SDS011;9983;51.114;13.788;2024-03-02T02:23:09;51.75;;;29.73;;
19671;SDS011;9983;51.114;13.788;2024-03-02T02:28:09;45.13;;;28.88;;
19671;SDS011;9983;51.114;13.788;2024-03-02T02:33:10;48.55;;;30.38;;
19671;SDS011;9983;51.114;13.788;2024-03-02T02:38:10;51.08;;;28.95;;
19671;SDS011;9983;51.114;13.788;2024-03-02T02:43:10;47.53;;;28.98;;
19671;SDS011;9983;51.114;13.788;2024-03-02T02:48:10;47.22;;;29.77;;
19671;SDS011;9983;51.114;13.788;2024-03-02T02:53:10;57.08;;;30.90;;
19671;SDS011;9983;51.114;13.788;2024-03-02T02:58:10;49.25;;;29.52;;
19671;SDS011;9983;51.114;13.788;2024-03-02T03:03:10;55.53;;;31.40;;
19671;SDS011;9983;51.114;13.788;2024-03-02T03:08:10;47.80;;;30.25;;
19671;SDS011;9983;51.114;13.788;2024-03-02T03:13:11;45.50;;;28.80;;
19671;SDS011;9983;51.114;13.788;2024-03-02T03:18:11;45.42;;;29.05;;
19671;SDS011;9983;51.114;13.788;2024-03-02T03:23:11;50.63;;;29.42;;
19671;SDS011;9983;51.114;13.788;2024-03-02T03:28:15;55.15;;;30.98;;
19671;SDS011;9983;51.114;13.788;2024-03-02T03:33:15;55.72;;;30.05;;
19671;SDS011;9983;51.114;13.788;2024-03-02T03:38:15;60.50;;;31.13;;
19671;SDS011;9983;51.114;13.788;2024-03-02T03:43:15;53.70;;;30.35;;
19671;SDS011;9983;51.114;13.788;2024-03-02T03:48:15;56.38;;;31.58;;
19671;SDS011;9983;51.114;13.788;2024-03-02T03:53:15;55.55;;;30.23;;
19671;SDS011;9983;51.114;13.788;2024-03-02T03:58:16;59.47;;;32.22;;
19671;SDS011;9983;51.114;13.788;2024-03-02T04:03:17;55.85;;;30.30;;
19671;SDS011;9983;51.114;13.788;2024-03-02T04:08:17;62.50;;;30.05;;
19671;SDS011;9983;51.114;13.788;2024-03-02T04:13:17;59.03;;;31.05;;
19671;SDS011;9983;51.114;13.788;2024-03-02T04:18:17;55.85;;;30.55;;
19671;SDS011;9983;51.114;13.788;2024-03-02T04:23:18;59.33;;;31.45;;
19671;SDS011;9983;51.114;13.788;2024-03-02T04:28:18;65.10;;;32.08;;
19671;SDS011;9983;51.114;13.788;2024-03-02T04:33:18;67.40;;;33.25;;
19671;SDS011;9983;51.114;13.788;2024-03-02T04:38:18;62.63;;;31.42;;
19671;SDS011;9983;51.114;13.788;2024-03-02T04:43:18;66.95;;;31.73;;
19671;SDS011;9983;51.114;13.788;2024-03-02T04:48:19;67.55;;;33.35;;
19671;SDS011;9983;51.114;13.788;2024-03-02T04:53:19;66.88;;;32.72;;
19671;SDS011;9983;51.114;13.788;2024-03-02T04:58:19;59.28;;;31.00;;
19671;SDS011;9983;51.114;13.788;2024-03-02T05:03:19;64.30;;;31.45;;
19671;SDS011;9983;51.114;13.788;2024-03-02T05:08:19;71.95;;;33.40;;
19671;SDS011;9983;51.114;13.788;2024-03-02T05:13:19;67.10;;;32.00;;
19671;SDS011;9983;51.114;13.788;2024-03-02T05:18:20;62.38;;;32.03;;
19671;SDS011;9983;51.114;13.788;2024-03-02T05:23:21;67.00;;;32.78;;
19671;SDS011;9983;51.114;13.788;2024-03-02T05:28:21;64.63;;;30.88;;
19671;SDS011;9983;51.114;13.788;2024-03-02T05:33:21;68.10;;;31.80;;
19671;SDS011;9983;51.114;13.788;2024-03-02T05:38:22;65.90;;;30.98;;
19671;SDS011;9983;51.114;13.788;2024-03-02T05:43:22;61.00;;;31.95;;
19671;SDS011;9983;51.114;13.788;2024-03-02T05:48:22;61.35;;;30.17;;
19671;SDS011;9983;51.114;13.788;2024-03-02T05:53:23;58.00;;;30.00;;
19671;SDS011;9983;51.114;13.788;2024-03-02T05:58:23;63.28;;;32.05;;
19671;SDS011;9983;51.114;13.788;2024-03-02T06:03:42;54.50;;;28.75;;
19671;SDS011;9983;51.114;13.788;2024-03-02T06:08:42;54.17;;;29.40;;
19671;SDS011;9983;51.114;13.788;2024-03-02T06:13:42;54.30;;;26.95;;
19671;SDS011;9983;51.114;13.788;2024-03-02T06:18:42;49.65;;;28.17;;
19671;SDS011;9983;51.114;13.788;2024-03-02T06:23:42;49.47;;;28.48;;
19671;SDS011;9983;51.114;13.788;2024-03-02T06:28:42;52.30;;;28.38;;
19671;SDS011;9983;51.114;13.788;2024-03-02T06:33:45;56.78;;;27.88;;
19671;SDS011;9983;51.114;13.788;2024-03-02T06:38:46;47.95;;;27.08;;
19671;SDS011;9983;51.114;13.788;2024-03-02T06:43:46;48.50;;;26.52;;
19671;SDS011;9983;51.114;13.788;2024-03-02T06:48:46;42.92;;;24.77;;
19671;SDS011;9983;51.114;13.788;2024-03-02T06:53:46;47.42;;;25.38;;
19671;SDS011;9983;51.114;13.788;2024-03-02T06:58:46;44.75;;;24.67;;
19671;SDS011;9983;51.114;13.788;2024-03-02T07:03:46;46.15;;;25.92;;
19671;SDS011;9983;51.114;13.788;2024-03-02T07:08:47;43.78;;;24.65;;
19671;SDS011;9983;51.114;13.788;2024-03-02T07:13:47;44.50;;;24.35;;
19671;SDS011;9983;51.114;13.788;2024-03-02T07:18:47;41.17;;;23.58;;
19671;SDS011;9983;51.114;13.788;2024-03-02T07:23:51;41.25;;;22.65;;
19671;SDS011;9983;51.114;13.788;2024-03-02T07:28:51;37.17;;;22.13;;
19671;SDS011;9983;51.114;13.788;2024-03-02T07:33:52;35.40;;;21.58;;
19671;SDS011;9983;51.114;13.788;2024-03-02T07:38:52;39.90;;;22.90;;
19671;SDS011;9983;51.114;13.788;2024-03-02T07:43:52;38.53;;;20.60;;
19671;SDS011;9983;51.114;13.788;2024-03-02T07:48:53;32.95;;;19.60;;
19671;SDS011;9983;51.114;13.788;2024-03-02T07:53:53;35.30;;;20.42;;
19671;SDS011;9983;51.114;13.788;2024-03-02T07:58:53;37.08;;;20.92;;
19671;SDS011;9983;51.114;13.788;2024-03-02T08:03:53;34.03;;;20.08;;
19671;SDS011;9983;51.114;13.788;2024-03-02T08:08:55;33.42;;;19.35;;
19671;SDS011;9983;51.114;13.788;2024-03-02T08:13:56;36.97;;;20.42;;
19671;SDS011;9983;51.114;13.788;2024-03-02T08:18:56;32.03;;;19.45;;
19671;SDS011;9983;51.114;13.788;2024-03-02T08:23:59;33.55;;;19.75;;
19671;SDS011;9983;51.114;13.788;2024-03-02T08:28:59;29.65;;;18.02;;
19671;SDS011;9983;51.114;13.788;2024-03-02T08:34:01;35.65;;;19.58;;
19671;SDS011;9983;51.114;13.788;2024-03-02T08:39:02;31.05;;;19.05;;
19671;SDS011;9983;51.114;13.788;2024-03-02T08:44:03;30.20;;;17.35;;
19671;SDS011;9983;51.114;13.788;2024-03-02T08:49:03;30.33;;;17.05;;
19671;SDS011;9983;51.114;13.788;2024-03-02T08:54:04;27.83;;;16.70;;
19671;SDS011;9983;51.114;13.788;2024-03-02T08:59:04;24.17;;;15.30;;
19671;SDS011;9983;51.114;13.788;2024-03-02T09:04:05;25.48;;;14.77;;
19671;SDS011;9983;51.114;13.788;2024-03-02T09:09:05;22.48;;;13.77;;
19671;SDS011;9983;51.114;13.788;2024-03-02T09:14:05;18.13;;;12.00;;
19671;SDS011;9983;51.114;13.788;2024-03-02T09:19:05;20.65;;;11.48;;
19671;SDS011;9983;51.114;13.788;2024-03-02T09:24:05;18.42;;;10.98;;
19671;SDS011;9983;51.114;13.788;2024-03-02T09:29:06;17.00;;;10.55;;
19671;SDS011;9983;51.114;13.788;2024-03-02T09:34:07;14.45;;;9.45;;
19671;SDS011;9983;51.114;13.788;2024-03-02T09:39:07;14.82;;;8.95;;
19671;SDS011;9983;51.114;13.788;2024-03-02T09:44:09;16.05;;;10.65;;
19671;SDS011;9983;51.114;13.788;2024-03-02T09:49:10;14.63;;;10.15;;
19671;SDS011;9983;51.114;13.788;2024-03-02T09:54:10;21.08;;;11.38;;
19671;SDS011;9983;51.114;13.788;2024-03-02T09:59:10;16.55;;;10.98;;
19671;SDS011;9983;51.114;13.788;2024-03-02T10:04:10;16.60;;;10.45;;
19671;SDS011;9983;51.114;13.788;2024-03-02T10:09:13;19.00;;;12.50;;
19671;SDS011;9983;51.114;13.788;2024-03-02T10:14:26;19.17;;;13.32;;
19671;SDS011;9983;51.114;13.788;2024-03-02T10:19:26;20.80;;;12.25;;
19671;SDS011;9983;51.114;13.788;2024-03-02T10:24:26;17.65;;;12.27;;
19671;SDS011;9983;51.114;13.788;2024-03-02T10:29:29;22.00;;;12.20;;
19671;SDS011;9983;51.114;13.788;2024-03-02T10:34:29;19.35;;;12.18;;
19671;SDS011;9983;51.114;13.788;2024-03-02T10:39:30;17.05;;;11.35;;
19671;SDS011;9983;51.114;13.788;2024-03-02T10:44:31;18.30;;;11.18;;
19671;SDS011;9983;51.114;13.788;2024-03-02T10:49:32;13.70;;;8.45;;
19671;SDS011;9983;51.114;13.788;2024-03-02T10:54:33;12.15;;;8.68;;
19671;SDS011;9983;51.114;13.788;2024-03-02T10:59:36;13.68;;;8.15;;
19671;SDS011;9983;51.114;13.788;2024-03-02T11:04:38;12.73;;;8.07;;
19671;SDS011;9983;51.114;13.788;2024-03-02T11:09:41;9.15;;;7.72;;
19671;SDS011;9983;51.114;13.788;2024-03-02T11:14:42;11.80;;;8.68;;
19671;SDS011;9983;51.114;13.788;2024-03-02T11:19:45;11.90;;;9.00;;
19671;SDS011;9983;51.114;13.788;2024-03-02T11:24:49;10.60;;;8.18;;
19671;SDS011;9983;51.114;13.788;2024-03-02T11:29:50;12.52;;;8.82;;
19671;SDS011;9983;51.114;13.788;2024-03-02T11:34:51;8.85;;;7.38;;
19671;SDS011;9983;51.114;13.788;2024-03-02T11:39:51;10.63;;;8.55;;
19671;SDS011;9983;51.114;13.788;2024-03-02T11:44:51;11.93;;;8.27;;
19671;SDS011;9983;51.114;13.788;2024-03-02T11:49:56;16.13;;;10.00;;
19671;SDS011;9983;51.114;13.788;2024-03-02T11:54:56;14.65;;;10.88;;
19671;SDS011;9983;51.114;13.788;2024-03-02T11:59:56;16.70;;;10.43;;
19671;SDS011;9983;51.114;13.788;2024-03-02T12:04:57;14.40;;;10.27;;
19671;SDS011;9983;51.114;13.788;2024-03-02T12:10:01;12.13;;;8.98;;
19671;SDS011;9983;51.114;13.788;2024-03-02T12:15:01;13.25;;;8.10;;
19671;SDS011;9983;51.114;13.788;2024-03-02T12:20:04;9.80;;;7.07;;
19671;SDS011;9983;51.114;13.788;2024-03-02T12:25:04;13.07;;;7.53;;
19671;SDS011;9983;51.114;13.788;2024-03-02T12:30:05;12.45;;;8.65;;
19671;SDS011;9983;51.114;13.788;2024-03-02T12:35:08;17.05;;;9.82;;
19671;SDS011;9983;51.114;13.788;2024-03-02T12:40:13;13.38;;;8.63;;
19671;SDS011;9983;51.114;13.788;2024-03-02T12:45:13;12.82;;;7.68;;
19671;SDS011;9983;51.114;13.788;2024-03-02T12:50:13;18.02;;;10.60;;
19671;SDS011;9983;51.114;13.788;2024-03-02T12:55:14;15.50;;;10.90;;
19671;SDS011;9983;51.114;13.788;2024-03-02T13:00:14;19.50;;;11.02;;
19671;SDS011;9983;51.114;13.788;2024-03-02T13:05:15;16.73;;;10.35;;
19671;SDS011;9983;51.114;13.788;2024-03-02T13:10:15;15.65;;;10.68;;
19671;SDS011;9983;51.114;13.788;2024-03-02T13:15:16;14.73;;;9.55;;
19671;SDS011;9983;51.114;13.788;2024-03-02T13:20:16;15.60;;;9.68;;
19671;SDS011;9983;51.114;13.788;2024-03-02T13:25:18;12.60;;;9.25;;
19671;SDS011;9983;51.114;13.788;2024-03-02T13:30:18;14.82;;;9.48;;
19671;SDS011;9983;51.114;13.788;2024-03-02T13:35:18;12.05;;;8.70;;
19671;SDS011;9983;51.114;13.788;2024-03-02T13:40:18;13.77;;;8.65;;
19671;SDS011;9983;51.114;13.788;2024-03-02T13:45:20;11.60;;;8.45;;
19671;SDS011;9983;51.114;13.788;2024-03-02T13:50:20;11.77;;;8.48;;
19671;SDS011;9983;51.114;13.788;2024-03-02T13:55:20;13.07;;;9.33;;
19671;SDS011;9983;51.114;13.788;2024-03-02T14:00:20;12.52;;;8.88;;
19671;SDS011;9983;51.114;13.788;2024-03-02T14:05:20;13.85;;;9.20;;
19671;SDS011;9983;51.114;13.788;2024-03-02T14:10:21;11.63;;;8.25;;
19671;SDS011;9983;51.114;13.788;2024-03-02T14:15:23;12.25;;;8.07;;
19671;SDS011;9983;51.114;13.788;2024-03-02T14:20:24;12.35;;;8.27;;
19671;SDS011;9983;51.114;13.788;2024-03-02T14:25:24;12.75;;;7.95;;
19671;SDS011;9983;51.114;13.788;2024-03-02T14:30:25;11.75;;;8.13;;
19671;SDS011;9983;51.114;13.788;2024-03-02T14:35:25;11.48;;;7.90;;
19671;SDS011;9983;51.114;13.788;2024-03-02T14:40:25;12.50;;;7.95;;
19671;SDS011;9983;51.114;13.788;2024-03-02T14:45:27;12.18;;;8.35;;
19671;SDS011;9983;51.114;13.788;2024-03-02T14:50:27;13.68;;;8.93;;
19671;SDS011;9983;51.114;13.788;2024-03-02T14:55:28;16.05;;;8.98;;
19671;SDS011;9983;51.114;13.788;2024-03-02T15:00:28;14.68;;;9.10;;
19671;SDS011;9983;51.114;13.788;2024-03-02T15:05:28;13.80;;;9.23;;
19671;SDS011;9983;51.114;13.788;2024-03-02T15:10:28;14.98;;;9.52;;
19671;SDS011;9983;51.114;13.788;2024-03-02T15:15:28;15.65;;;9.70;;
19671;SDS011;9983;51.114;13.788;2024-03-02T15:20:29;15.38;;;9.43;;
19671;SDS011;9983;51.114;13.788;2024-03-02T15:25:29;14.10;;;10.00;;
19671;SDS011;9983;51.114;13.788;2024-03-02T15:30:29;16.35;;;10.15;;
19671;SDS011;9983;51.114;13.788;2024-03-02T15:35:29;15.20;;;9.95;;
19671;SDS011;9983;51.114;13.788;2024-03-02T15:40:30;14.23;;;9.45;;
19671;SDS011;9983;51.114;13.788;2024-03-02T15:45:30;18.55;;;12.20;;
19671;SDS011;9983;51.114;13.788;2024-03-02T15:50:33;16.60;;;11.23;;
19671;SDS011;9983;51.114;13.788;2024-03-02T15:55:35;15.52;;;10.75;;
19671;SDS011;9983;51.114;13.788;2024-03-02T16:00:36;15.32;;;10.70;;
19671;SDS011;9983;51.114;13.788;2024-03-02T16:05:36;16.40;;;10.25;;
19671;SDS011;9983;51.114;13.788;2024-03-02T16:10:36;13.48;;;9.90;;
19671;SDS011;9983;51.114;13.788;2024-03-02T16:15:36;16.65;;;10.68;;
19671;SDS011;9983;51.114;13.788;2024-03-02T16:20:36;16.48;;;9.95;;
19671;SDS011;9983;51.114;13.788;2024-03-02T16:25:36;15.75;;;10.27;;
19671;SDS011;9983;51.114;13.788;2024-03-02T16:30:37;17.83;;;10.10;;
19671;SDS011;9983;51.114;13.788;2024-03-02T16:35:37;16.83;;;10.18;;
19671;SDS011;9983;51.114;13.788;2024-03-02T16:40:37;14.05;;;9.88;;
19671;SDS011;9983;51.114;13.788;2024-03-02T16:45:38;14.27;;;10.18;;
19671;SDS011;9983;51.114;13.788;2024-03-02T16:50:38;17.35;;;10.85;;
19671;SDS011;9983;51.114;13.788;2024-03-02T16:55:38;14.98;;;10.63;;
19671;SDS011;9983;51.114;13.788;2024-03-02T17:00:39;11.50;;;9.02;;
19671;SDS011;9983;51.114;13.788;2024-03-02T17:05:40;16.98;;;9.80;;
19671;SDS011;9983;51.114;13.788;2024-03-02T17:10:40;13.18;;;9.65;;
19671;SDS011;9983;51.114;13.788;2024-03-02T17:15:41;14.10;;;9.70;;
19671;SDS011;9983;51.114;13.788;2024-03-02T17:20:41;13.95;;;9.13;;
19671;SDS011;9983;51.114;13.788;2024-03-02T17:25:41;13.38;;;9.15;;
19671;SDS011;9983;51.114;13.788;2024-03-02T17:30:41;19.65;;;8.75;;
19671;SDS011;9983;51.114;13.788;2024-03-02T17:35:42;14.13;;;9.48;;
19671;SDS011;9983;51.114;13.788;2024-03-02T17:40:45;14.10;;;9.18;;
19671;SDS011;9983;51.114;13.788;2024-03-02T17:45:45;15.13;;;9.80;;
19671;SDS011;9983;51.114;13.788;2024-03-02T17:50:45;12.60;;;9.23;;
19671;SDS011;9983;51.114;13.788;2024-03-02T17:55:45;14.48;;;10.32;;
19671;SDS011;9983;51.114;13.788;2024-03-02T18:00:45;13.32;;;9.40;;
19671;SDS011;9983;51.114;13.788;2024-03-02T18:05:46;14.73;;;9.00;;
19671;SDS011;9983;51.114;13.788;2024-03-02T18:10:46;15.07;;;9.68;;
19671;SDS011;9983;51.114;13.788;2024-03-02T18:15:47;11.85;;;9.27;;
19671;SDS011;9983;51.114;13.788;2024-03-02T18:20:47;12.07;;;8.57;;
19671;SDS011;9983;51.114;13.788;2024-03-02T18:25:49;14.23;;;9.50;;
19671;SDS011;9983;51.114;13.788;2024-03-02T18:30:49;13.70;;;9.45;;
19671;SDS011;9983;51.114;13.788;2024-03-02T18:35:49;15.15;;;9.70;;
19671;SDS011;9983;51.114;13.788;2024-03-02T18:40:50;13.85;;;9.27;;
19671;SDS011;9983;51.114;13.788;2024-03-02T18:45:50;13.55;;;10.32;;
19671;SDS011;9983;51.114;13.788;2024-03-02T18:50:50;15.57;;;10.10;;
19671;SDS011;9983;51.114;13.788;2024-03-02T18:55:50;13.97;;;9.67;;
19671;SDS011;9983;51.114;13.788;2024-03-02T19:00:50;13.20;;;9.55;;
19671;SDS011;9983;51.114;13.788;2024-03-02T19:05:50;14.40;;;10.27;;
19671;SDS011;9983;51.114;13.788;2024-03-02T19:10:51;13.77;;;9.57;;
19671;SDS011;9983;51.114;13.788;2024-03-02T19:15:51;19.90;;;11.07;;
19671;SDS011;9983;51.114;13.788;2024-03-02T19:20:51;17.35;;;11.18;;
19671;SDS011;9983;51.114;13.788;2024-03-02T19:25:51;15.82;;;11.02;;
19671;SDS011;9983;51.114;13.788;2024-03-02T19:30:52;16.77;;;11.05;;
19671;SDS011;9983;51.114;13.788;2024-03-02T19:35:53;18.98;;;12.00;;
19671;SDS011;9983;51.114;13.788;2024-03-02T19:40:54;17.20;;;10.93;;
19671;SDS011;9983;51.114;13.788;2024-03-02T19:45:55;17.58;;;10.85;;
19671;SDS011;9983;51.114;13.788;2024-03-02T19:50:56;18.20;;;10.18;;
19671;SDS011;9983;51.114;13.788;2024-03-02T19:55:56;18.02;;;11.30;;
19671;SDS011;9983;51.114;13.788;2024-03-02T20:00:56;21.08;;;11.93;;
19671;SDS011;9983;51.114;13.788;2024-03-02T20:05:56;16.08;;;11.13;;
19671;SDS011;9983;51.114;13.788;2024-03-02T20:10:56;20.85;;;13.20;;
19671;SDS011;9983;51.114;13.788;2024-03-02T20:15:56;21.65;;;13.88;;
19671;SDS011;9983;51.114;13.788;2024-03-02T20:20:58;25.23;;;14.80;;
19671;SDS011;9983;51.114;13.788;2024-03-02T20:25:58;21.17;;;13.43;;
19671;SDS011;9983;51.114;13.788;2024-03-02T20:30:59;19.77;;;12.15;;
19671;SDS011;9983;51.114;13.788;2024-03-02T20:36:00;24.83;;;15.38;;
19671;SDS011;9983;51.114;13.788;2024-03-02T20:41:02;25.25;;;15.68;;
19671;SDS011;9983;51.114;13.788;2024-03-02T20:46:03;38.90;;;21.67;;
19671;SDS011;9983;51.114;13.788;2024-03-02T20:51:06;33.22;;;18.23;;
19671;SDS011;9983;51.114;13.788;2024-03-02T20:56:07;34.65;;;22.30;;
19671;SDS011;9983;51.114;13.788;2024-03-02T21:01:07;34.15;;;19.92;;
19671;SDS011;9983;51.114;13.788;2024-03-02T21:06:07;32.22;;;21.65;;
19671;SDS011;9983;51.114;13.788;2024-03-02T21:11:07;37.70;;;22.13;;
19671;SDS011;9983;51.114;13.788;2024-03-02T21:16:07;37.75;;;22.15;;
19671;SDS011;9983;51.114;13.788;2024-03-02T21:21:07;32.03;;;20.75;;
19671;SDS011;9983;51.114;13.788;2024-03-02T21:26:08;33.97;;;21.98;;
19671;SDS011;9983;51.114;13.788;2024-03-02T21:31:13;34.30;;;20.85;;
19671;SDS011;9983;51.114;13.788;2024-03-02T21:36:13;34.80;;;21.92;;
19671;SDS011;9983;51.114;13.788;2024-03-02T21:41:14;34.35;;;21.58;;
19671;SDS011;9983;51.114;13.788;2024-03-02T21:46:14;36.15;;;22.00;;
19671;SDS011;9983;51.114;13.788;2024-03-02T21:51:14;37.28;;;21.90;;
19671;SDS011;9983;51.114;13.788;2024-03-02T21:56:15;37.83;;;22.05;;
19671;SDS011;9983;51.114;13.788;2024-03-02T22:01:16;35.63;;;22.05;;
19671;SDS011;9983;51.114;13.788;2024-03-02T22:06:16;33.72;;;22.23;;
19671;SDS011;9983;51.114;13.788;2024-03-02T22:11:16;34.83;;;21.85;;
19671;SDS011;9983;51.114;13.788;2024-03-02T22:16:17;36.95;;;22.73;;
19671;SDS011;9983;51.114;13.788;2024-03-02T22:21:17;37.70;;;21.67;;
19671;SDS011;9983;51.114;13.788;2024-03-02T22:26:17;31.55;;;19.90;;
19671;SDS011;9983;51.114;13.788;2024-03-02T22:31:19;38.72;;;22.48;;
19671;SDS011;9983;51.114;13.788;2024-03-02T22:36:19;39.65;;;23.08;;
19671;SDS011;9983;51.114;13.788;2024-03-02T22:41:19;32.33;;;20.35;;
19671;SDS011;9983;51.114;13.788;2024-03-02T22:46:19;32.80;;;20.85;;
19671;SDS011;9983;51.114;13.788;2024-03-02T22:51:20;33.67;;;20.92;;
19671;SDS011;9983;51.114;13.788;2024-03-02T22:56:20;33.10;;;20.35;;
19671;SDS011;9983;51.114;13.788;2024-03-02T23:01:20;31.67;;;19.92;;
19671;SDS011;9983;51.114;13.788;2024-03-02T23:06:22;28.88;;;19.20;;
19671;SDS011;9983;51.114;13.788;2024-03-02T23:11:23;29.27;;;18.92;;
19671;SDS011;9983;51.114;13.788;2024-03-02T23:16:23;28.17;;;17.35;;
19671;SDS011;9983;51.114;13.788;2024-03-02T23:21:23;27.83;;;18.13;;
19671;SDS011;9983;51.114;13.788;2024-03-02T23:26:23;31.52;;;18.60;;
19671;SDS011;9983;51.114;13.788;2024-03-02T23:31:24;26.88;;;17.48;;
19671;SDS011;9983;51.114;13.788;2024-03-02T23:36:25;27.08;;;17.67;;
19671;SDS011;9983;51.114;13.788;2024-03-02T23:41:26;24.60;;;17.88;;
19671;SDS011;9983;51.114;13.788;2024-03-02T23:46:26;26.58;;;16.10;;
19671;SDS011;9983;51.114;13.788;2024-03-02T23:51:26;23.60;;;15.50;;
19671;SDS011;9983;51.114;13.788;2024-03-02T23:56:26;29.08;;;16.38;;
